createdAt,value
2019-05-26T07:31:54.539Z,24.54
2019-05-26T07:32:54.537Z,24.98
2019-05-26T07:34:47.418Z,24.85
2019-05-26T07:35:49.797Z,25.25
2019-05-26T07:37:40.319Z,25.43
2019-05-26T07:38:40.340Z,25.35
2019-05-26T07:40:39.730Z,24.85
2019-05-26T07:41:39.729Z,24.99
2019-05-26T07:43:32.624Z,24.74
2019-05-26T07:44:32.613Z,24.30
2019-05-26T07:46:25.505Z,23.32
2019-05-26T07:47:25.503Z,22.73
2019-05-26T07:49:18.402Z,22.41
2019-05-26T07:50:18.392Z,22.98
2019-05-26T07:51:18.396Z,23.28
2019-05-26T07:52:18.400Z,23.17
2019-05-26T07:53:18.403Z,23.21
2019-05-26T07:54:25.701Z,23.41
2019-05-26T07:55:18.411Z,23.24
2019-05-26T07:56:18.414Z,22.83
2019-05-26T07:57:18.430Z,22.87
2019-05-26T07:58:18.425Z,22.50
2019-05-26T07:59:18.428Z,21.64
2019-05-26T08:00:18.428Z,21.29
2019-05-26T08:01:18.432Z,21.24
2019-05-26T08:02:18.432Z,21.50
2019-05-26T08:03:18.469Z,21.51
2019-05-26T08:04:18.444Z,21.52
2019-05-26T08:05:18.443Z,21.03
2019-05-26T08:06:18.453Z,21.07
2019-05-26T08:07:18.459Z,21.30
2019-05-26T08:08:18.452Z,21.50
2019-05-26T08:09:18.456Z,21.85
2019-05-26T08:10:18.459Z,21.76
2019-05-26T08:11:18.465Z,22.08
2019-05-26T08:12:27.003Z,21.36
2019-05-26T08:13:18.469Z,21.45
2019-05-26T08:14:18.472Z,21.60
2019-05-26T08:15:18.480Z,22.07
2019-05-26T08:16:18.477Z,22.39
2019-05-26T08:17:18.479Z,22.38
2019-05-26T08:18:18.488Z,22.45
2019-05-26T08:19:18.487Z,22.59
2019-05-26T08:20:18.488Z,22.68
2019-05-26T08:21:18.490Z,22.73
2019-05-26T08:22:18.496Z,22.59
2019-05-26T08:23:18.501Z,22.07
2019-05-26T08:24:18.500Z,22.28
2019-05-26T08:25:18.510Z,22.10
2019-05-26T08:26:18.509Z,22.32
2019-05-26T08:27:18.509Z,22.50
2019-05-26T08:28:18.514Z,22.81
2019-05-26T08:29:18.515Z,22.70
2019-05-26T08:30:18.517Z,22.66
2019-05-26T08:31:18.522Z,22.83
2019-05-26T08:32:18.526Z,22.66
2019-05-26T08:33:18.527Z,22.53
2019-05-26T08:34:18.530Z,22.51
2019-05-26T08:35:18.534Z,22.76
2019-05-26T08:36:18.538Z,22.53
2019-05-26T08:37:18.540Z,22.63
2019-05-26T08:38:18.543Z,22.66
2019-05-26T08:39:18.549Z,23.00
2019-05-26T08:40:18.569Z,23.32
2019-05-26T08:41:18.554Z,23.51
2019-05-26T08:42:26.843Z,23.61
2019-05-26T08:43:18.561Z,24.08
2019-05-26T08:44:18.563Z,24.18
2019-05-26T08:45:21.424Z,23.92
2019-05-26T08:46:18.573Z,23.98
2019-05-26T08:47:18.574Z,23.55
2019-05-26T08:48:18.577Z,23.62
2019-05-26T08:49:18.581Z,23.77
2019-05-26T08:50:18.584Z,23.99
2019-05-26T08:51:18.588Z,24.06
2019-05-26T08:52:18.594Z,24.43
2019-05-26T08:53:18.596Z,24.55
2019-05-26T08:54:18.600Z,24.70
2019-05-26T08:55:18.605Z,24.16
2019-05-26T08:56:18.607Z,24.58
2019-05-26T08:57:18.615Z,24.69
2019-05-26T08:58:18.620Z,24.85
2019-05-26T08:59:18.627Z,25.18
2019-05-26T09:00:18.622Z,25.25
2019-05-26T09:01:18.628Z,25.22
2019-05-26T09:02:18.630Z,24.14
2019-05-26T09:03:18.638Z,24.13
2019-05-26T09:04:18.638Z,23.84
2019-05-26T09:05:18.647Z,24.01
2019-05-26T09:06:18.644Z,23.87
2019-05-26T09:07:18.647Z,23.55
2019-05-26T09:08:18.651Z,23.10
2019-05-26T09:09:18.661Z,23.23
2019-05-26T09:10:18.657Z,23.24
2019-05-26T09:11:18.666Z,22.88
2019-05-26T09:12:18.667Z,22.93
2019-05-26T09:13:18.669Z,23.03
2019-05-26T09:14:18.680Z,22.76
2019-05-26T09:15:18.677Z,22.68
2019-05-26T09:16:18.680Z,22.55
2019-05-26T09:17:18.682Z,22.60
2019-05-26T09:18:18.684Z,22.36
2019-05-26T09:19:18.689Z,22.39
2019-05-26T09:20:18.690Z,22.50
2019-05-26T09:21:18.694Z,22.39
2019-05-26T09:22:18.706Z,22.23
2019-05-26T09:23:18.700Z,22.02
2019-05-26T09:24:18.704Z,21.64
2019-05-26T09:25:18.770Z,21.57
2019-05-26T09:26:18.705Z,21.57
2019-05-26T09:27:18.707Z,21.51
2019-05-26T09:28:18.711Z,21.42
2019-05-26T09:29:18.716Z,21.51
2019-05-26T09:30:18.716Z,21.70
2019-05-26T09:31:18.721Z,21.77
2019-05-26T09:32:18.723Z,22.07
2019-05-26T09:33:18.727Z,21.88
2019-05-26T09:34:18.731Z,22.10
2019-05-26T09:35:18.743Z,22.15
2019-05-26T09:36:18.731Z,22.30
2019-05-26T09:37:18.738Z,22.30
2019-05-26T09:38:18.787Z,22.22
2019-05-26T09:39:18.739Z,22.50
2019-05-26T09:40:18.748Z,22.59
2019-05-26T09:41:18.741Z,22.63
2019-05-26T09:42:22.199Z,22.65
2019-05-26T09:43:18.746Z,22.36
2019-05-26T09:44:18.752Z,22.29
2019-05-26T09:45:18.812Z,22.33
2019-05-26T09:46:18.754Z,22.50
2019-05-26T09:47:18.757Z,22.73
2019-05-26T09:48:18.756Z,22.66
2019-05-26T09:49:18.760Z,22.68
2019-05-26T09:50:18.765Z,22.69
2019-05-26T09:51:18.777Z,22.68
2019-05-26T09:52:18.769Z,22.68
2019-05-26T09:53:18.771Z,22.75
2019-05-26T09:54:18.774Z,22.69
2019-05-26T09:55:18.780Z,22.65
2019-05-26T09:56:18.780Z,22.65
2019-05-26T09:57:18.784Z,22.76
2019-05-26T09:58:18.805Z,22.90
2019-05-26T09:59:18.800Z,22.88
2019-05-26T10:00:18.789Z,22.90
2019-05-26T10:01:18.797Z,22.87
2019-05-26T10:02:18.792Z,22.84
2019-05-26T10:03:18.796Z,22.48
2019-05-26T10:04:18.822Z,22.26
2019-05-26T10:05:18.791Z,22.17
2019-05-26T10:06:18.807Z,22.23
2019-05-26T10:07:18.805Z,22.30
2019-05-26T10:08:18.811Z,22.22
2019-05-26T10:09:18.811Z,22.20
2019-05-26T10:10:18.973Z,22.10
2019-05-26T10:11:18.815Z,22.41
2019-05-26T10:12:18.814Z,22.38
2019-05-26T10:13:30.768Z,22.43
2019-05-26T10:14:18.823Z,22.41
2019-05-26T10:15:18.827Z,22.23
2019-05-26T10:16:18.828Z,22.08
2019-05-26T10:17:18.827Z,22.10
2019-05-26T10:18:18.829Z,22.23
2019-05-26T10:19:18.832Z,22.36
2019-05-26T10:20:18.830Z,22.36
2019-05-26T10:21:18.838Z,22.32
2019-05-26T10:22:18.841Z,22.43
2019-05-26T10:23:18.841Z,22.55
2019-05-26T10:24:18.843Z,22.59
2019-05-26T10:25:18.851Z,22.59
2019-05-26T10:26:18.848Z,22.33
2019-05-26T10:27:18.851Z,22.43
2019-05-26T10:28:18.850Z,22.23
2019-05-26T10:29:18.854Z,22.38
2019-05-26T10:30:18.855Z,22.50
2019-05-26T10:31:18.858Z,22.63
2019-05-26T10:32:18.863Z,22.73
2019-05-26T10:33:18.863Z,22.90
2019-05-26T10:34:18.865Z,22.99
2019-05-26T10:35:18.869Z,23.03
2019-05-26T10:36:18.871Z,23.09
2019-05-26T10:37:18.873Z,23.18
2019-05-26T10:38:18.878Z,23.10
2019-05-26T10:39:18.878Z,22.99
2019-05-26T10:40:18.881Z,22.99
2019-05-26T10:41:18.883Z,23.06
2019-05-26T10:42:18.885Z,23.15
2019-05-26T10:43:18.887Z,22.80
2019-05-26T10:44:18.890Z,22.90
2019-05-26T10:45:18.895Z,22.85
2019-05-26T10:46:18.896Z,22.72
2019-05-26T10:47:18.901Z,22.68
2019-05-26T10:48:18.905Z,22.85
2019-05-26T10:49:19.108Z,22.85
2019-05-26T10:50:18.904Z,22.70
2019-05-26T10:51:18.911Z,22.81
2019-05-26T10:52:18.909Z,22.72
2019-05-26T10:53:18.913Z,22.85
2019-05-26T10:54:18.916Z,22.73
2019-05-26T10:55:18.918Z,22.84
2019-05-26T10:56:18.919Z,22.90
2019-05-26T10:57:18.923Z,22.93
2019-05-26T10:58:18.925Z,22.91
2019-05-26T10:59:18.927Z,22.76
2019-05-26T11:00:18.929Z,22.87
2019-05-26T11:01:18.932Z,22.80
2019-05-26T11:02:18.935Z,22.70
2019-05-26T11:03:18.946Z,22.65
2019-05-26T11:04:18.939Z,22.75
2019-05-26T11:05:18.948Z,22.68
2019-05-26T11:06:18.943Z,22.48
2019-05-26T11:07:18.945Z,22.45
2019-05-26T11:08:18.951Z,22.53
2019-05-26T11:09:18.949Z,22.48
2019-05-26T11:10:18.969Z,22.59
2019-05-26T11:11:18.954Z,22.51
2019-05-26T11:12:18.959Z,22.39
2019-05-26T11:13:18.963Z,22.33
2019-05-26T11:14:18.963Z,22.29
2019-05-26T11:15:18.992Z,22.41
2019-05-26T11:16:18.964Z,22.41
2019-05-26T11:17:18.970Z,22.66
2019-05-26T11:18:18.973Z,22.66
2019-05-26T11:19:18.973Z,22.76
2019-05-26T11:20:18.978Z,22.70
2019-05-26T11:21:18.977Z,22.88
2019-05-26T11:22:18.981Z,22.84
2019-05-26T11:23:19.003Z,22.87
2019-05-26T11:24:18.985Z,22.94
2019-05-26T11:25:18.986Z,23.03
2019-05-26T11:26:18.988Z,23.27
2019-05-26T11:27:18.991Z,23.32
2019-05-26T11:28:18.992Z,23.51
2019-05-26T11:29:18.995Z,23.77
2019-05-26T11:30:18.999Z,23.91
2019-05-26T11:31:19.003Z,23.78
2019-05-26T11:32:19.005Z,23.93
2019-05-26T11:33:19.016Z,23.87
2019-05-26T11:34:19.007Z,23.65
2019-05-26T11:35:19.011Z,23.63
2019-05-26T11:36:19.014Z,23.74
2019-05-26T11:37:19.016Z,23.46
2019-05-26T11:38:19.020Z,23.44
2019-05-26T11:39:19.021Z,23.47
2019-05-26T11:40:19.024Z,23.47
2019-05-26T11:41:19.024Z,23.32
2019-05-26T11:42:19.028Z,23.23
2019-05-26T11:43:19.032Z,23.28
2019-05-26T11:44:19.034Z,23.20
2019-05-26T11:45:19.033Z,23.20
2019-05-26T11:46:19.036Z,23.23
2019-05-26T11:47:19.045Z,23.20
2019-05-26T11:48:19.042Z,23.24
2019-05-26T11:49:19.043Z,23.28
2019-05-26T11:50:19.048Z,23.27
2019-05-26T11:51:19.051Z,23.32
2019-05-26T11:52:20.372Z,23.27
2019-05-26T11:53:19.059Z,23.34
2019-05-26T11:54:19.065Z,23.27
2019-05-26T11:55:19.060Z,23.32
2019-05-26T11:56:19.067Z,23.48
2019-05-26T11:57:19.068Z,23.48
2019-05-26T11:58:19.072Z,23.39
2019-05-26T11:59:19.073Z,23.47
2019-05-26T12:00:19.073Z,23.47
2019-05-26T12:01:22.647Z,23.50
2019-05-26T12:02:19.077Z,23.48
2019-05-26T12:03:19.080Z,23.58
2019-05-26T12:04:19.083Z,23.59
2019-05-26T12:05:19.098Z,23.59
2019-05-26T12:06:19.091Z,23.63
2019-05-26T12:07:19.093Z,23.69
2019-05-26T12:08:19.095Z,23.65
2019-05-26T12:09:19.103Z,23.68
2019-05-26T12:10:19.097Z,23.65
2019-05-26T12:11:19.101Z,23.78
2019-05-26T12:12:19.103Z,23.86
2019-05-26T12:13:19.107Z,23.88
2019-05-26T12:14:33.430Z,23.87
2019-05-26T12:15:19.113Z,23.87
2019-05-26T12:16:19.115Z,23.88
2019-05-26T12:17:19.119Z,23.96
2019-05-26T12:18:19.124Z,23.88
2019-05-26T12:19:19.126Z,23.83
2019-05-26T12:20:19.123Z,23.59
2019-05-26T12:21:19.132Z,23.59
2019-05-26T12:22:19.132Z,23.65
2019-05-26T12:23:19.135Z,23.81
2019-05-26T12:24:19.139Z,23.81
2019-05-26T12:25:19.138Z,23.80
2019-05-26T12:26:19.142Z,23.59
2019-05-26T12:27:19.148Z,23.58
2019-05-26T12:28:19.148Z,23.62
2019-05-26T12:29:19.153Z,23.59
2019-05-26T12:30:19.154Z,23.63
2019-05-26T12:31:19.157Z,23.66
2019-05-26T12:32:19.161Z,23.73
2019-05-26T12:33:19.162Z,23.74
2019-05-26T12:34:19.166Z,23.83
2019-05-26T12:35:19.168Z,23.74
2019-05-26T12:36:19.170Z,23.61
2019-05-26T12:37:19.171Z,23.71
2019-05-26T12:38:19.175Z,23.87
2019-05-26T12:39:19.179Z,24.03
2019-05-26T12:40:19.180Z,24.26
2019-05-26T12:41:19.186Z,24.36
2019-05-26T12:42:19.193Z,24.40
2019-05-26T12:43:19.197Z,24.54
2019-05-26T12:44:19.192Z,24.42
2019-05-26T12:45:19.198Z,24.40
2019-05-26T12:46:19.198Z,24.42
2019-05-26T12:47:19.205Z,24.47
2019-05-26T12:48:19.205Z,24.54
2019-05-26T12:49:19.212Z,24.45
2019-05-26T12:50:19.212Z,24.28
2019-05-26T12:51:19.247Z,24.36
2019-05-26T12:52:19.221Z,24.23
2019-05-26T12:53:19.227Z,24.26
2019-05-26T12:54:19.222Z,24.14
2019-05-26T12:55:19.227Z,24.28
2019-05-26T12:56:19.231Z,24.30
2019-05-26T12:57:19.233Z,24.32
2019-05-26T12:58:19.240Z,24.11
2019-05-26T12:59:19.246Z,24.16
2019-05-26T13:00:19.246Z,24.01
2019-05-26T13:01:19.245Z,24.13
2019-05-26T13:02:19.273Z,24.24
2019-05-26T13:03:19.251Z,24.03
2019-05-26T13:04:19.254Z,24.23
2019-05-26T13:05:19.261Z,24.32
2019-05-26T13:06:19.261Z,24.39
2019-05-26T13:07:19.264Z,24.40
2019-05-26T13:08:19.269Z,24.38
2019-05-26T13:09:19.270Z,24.16
2019-05-26T13:10:19.273Z,24.36
2019-05-26T13:11:22.566Z,24.30
2019-05-26T13:12:19.280Z,24.38
2019-05-26T13:13:19.289Z,24.14
2019-05-26T13:14:19.290Z,23.99
2019-05-26T13:15:19.291Z,23.95
2019-05-26T13:16:19.291Z,23.86
2019-05-26T13:17:19.297Z,23.84
2019-05-26T13:18:19.301Z,23.91
2019-05-26T13:19:19.301Z,23.92
2019-05-26T13:20:19.306Z,23.78
2019-05-26T13:21:19.309Z,23.66
2019-05-26T13:22:19.311Z,23.59
2019-05-26T13:23:19.314Z,23.55
2019-05-26T13:24:19.316Z,23.59
2019-05-26T13:25:19.320Z,23.61
2019-05-26T13:26:19.322Z,23.61
2019-05-26T13:27:19.326Z,23.81
2019-05-26T13:28:19.329Z,23.80
2019-05-26T13:29:19.331Z,23.84
2019-05-26T13:30:19.334Z,23.87
2019-05-26T13:31:19.338Z,24.03
2019-05-26T13:32:19.340Z,24.14
2019-05-26T13:33:19.343Z,24.18
2019-05-26T13:34:19.348Z,24.28
2019-05-26T13:35:19.351Z,24.38
2019-05-26T13:36:19.352Z,24.24
2019-05-26T13:37:19.354Z,24.23
2019-05-26T13:38:19.357Z,24.18
2019-05-26T13:39:19.362Z,23.80
2019-05-26T13:40:19.364Z,23.81
2019-05-26T13:41:19.365Z,23.74
2019-05-26T13:42:19.370Z,23.69
2019-05-26T13:43:19.374Z,23.62
2019-05-26T13:44:19.374Z,23.66
2019-05-26T13:45:22.727Z,23.61
2019-05-26T13:46:19.385Z,23.71
2019-05-26T13:47:26.218Z,23.59
2019-05-26T13:48:19.387Z,23.63
2019-05-26T13:49:19.391Z,23.66
2019-05-26T13:50:19.394Z,23.59
2019-05-26T13:51:19.396Z,23.63
2019-05-26T13:52:19.398Z,23.50
2019-05-26T13:53:19.522Z,23.50
2019-05-26T13:54:19.405Z,23.54
2019-05-26T13:55:19.407Z,23.63
2019-05-26T13:56:19.413Z,23.63
2019-05-26T13:57:19.413Z,23.59
2019-05-26T13:58:19.415Z,23.66
2019-05-26T13:59:19.419Z,23.87
2019-05-26T14:00:19.421Z,23.93
2019-05-26T14:01:19.431Z,23.87
2019-05-26T14:02:19.428Z,23.88
2019-05-26T14:03:19.430Z,23.78
2019-05-26T14:04:19.431Z,23.62
2019-05-26T14:05:19.435Z,23.69
2019-05-26T14:06:19.438Z,23.74
2019-05-26T14:07:19.441Z,23.81
2019-05-26T14:08:19.439Z,23.87
2019-05-26T14:09:19.447Z,23.99
2019-05-26T14:10:19.450Z,23.78
2019-05-26T14:11:19.452Z,23.86
2019-05-26T14:12:19.460Z,23.84
2019-05-26T14:13:19.458Z,23.62
2019-05-26T14:14:19.463Z,23.61
2019-05-26T14:15:19.465Z,23.62
2019-05-26T14:16:19.467Z,23.46
2019-05-26T14:17:19.470Z,23.31
2019-05-26T14:18:19.476Z,23.39
2019-05-26T14:19:19.475Z,23.50
2019-05-26T14:20:19.477Z,23.32
2019-05-26T14:21:19.482Z,23.25
2019-05-26T14:22:19.488Z,23.23
2019-05-26T14:23:19.486Z,23.08
2019-05-26T14:24:19.491Z,23.08
2019-05-26T14:25:19.491Z,22.91
2019-05-26T14:26:19.501Z,22.85
2019-05-26T14:27:19.497Z,22.99
2019-05-26T14:28:19.499Z,23.09
2019-05-26T14:29:19.508Z,22.98
2019-05-26T14:30:19.506Z,22.98
2019-05-26T14:31:19.511Z,23.00
2019-05-26T14:32:19.512Z,23.06
2019-05-26T14:33:19.512Z,23.00
2019-05-26T14:34:19.517Z,23.08
2019-05-26T14:35:19.523Z,23.17
2019-05-26T14:36:19.521Z,23.27
2019-05-26T14:37:19.524Z,23.36
2019-05-26T14:38:19.526Z,23.21
2019-05-26T14:39:19.530Z,23.23
2019-05-26T14:40:19.531Z,23.20
2019-05-26T14:41:19.542Z,23.08
2019-05-26T14:42:19.536Z,22.98
2019-05-26T14:43:19.538Z,22.88
2019-05-26T14:44:19.548Z,22.78
2019-05-26T14:45:19.542Z,22.83
2019-05-26T14:46:19.549Z,22.91
2019-05-26T14:47:19.548Z,22.66
2019-05-26T14:48:19.568Z,22.76
2019-05-26T14:49:19.552Z,22.66
2019-05-26T14:50:19.556Z,22.62
2019-05-26T14:51:19.559Z,22.60
2019-05-26T14:52:19.589Z,22.47
2019-05-26T14:53:19.561Z,22.39
2019-05-26T14:54:19.564Z,22.35
2019-05-26T14:55:19.567Z,22.20
2019-05-26T14:56:19.568Z,22.29
2019-05-26T14:57:19.570Z,22.17
2019-05-26T14:58:19.576Z,22.22
2019-05-26T14:59:19.576Z,22.32
2019-05-26T15:00:19.574Z,22.33
2019-05-26T15:01:19.582Z,22.43
2019-05-26T15:02:19.582Z,22.43
2019-05-26T15:03:19.581Z,22.33
2019-05-26T15:04:19.583Z,22.39
2019-05-26T15:05:19.584Z,22.33
2019-05-26T15:06:19.591Z,22.38
2019-05-26T15:07:19.592Z,22.48
2019-05-26T15:08:19.594Z,22.54
2019-05-26T15:09:25.228Z,22.50
2019-05-26T15:10:22.519Z,22.65
2019-05-26T15:11:19.602Z,22.72
2019-05-26T15:12:19.602Z,22.75
2019-05-26T15:13:19.600Z,22.78
2019-05-26T15:14:19.600Z,22.91
2019-05-26T15:15:19.606Z,22.94
2019-05-26T15:16:19.607Z,22.88
2019-05-26T15:17:19.610Z,22.96
2019-05-26T15:18:19.612Z,22.90
2019-05-26T15:19:19.615Z,22.85
2019-05-26T15:20:19.614Z,22.80
2019-05-26T15:21:19.618Z,22.75
2019-05-26T15:22:19.621Z,22.83
2019-05-26T15:23:19.625Z,22.76
2019-05-26T15:24:19.623Z,22.78
2019-05-26T15:25:19.629Z,22.81
2019-05-26T15:26:19.627Z,22.72
2019-05-26T15:27:19.631Z,22.73
2019-05-26T15:28:19.633Z,22.76
2019-05-26T15:29:19.633Z,22.81
2019-05-26T15:30:19.638Z,22.93
2019-05-26T15:31:19.641Z,22.93
2019-05-26T15:32:19.640Z,23.03
2019-05-26T15:33:19.642Z,23.05
2019-05-26T15:34:19.644Z,23.06
2019-05-26T15:35:19.649Z,23.02
2019-05-26T15:36:19.652Z,23.10
2019-05-26T15:37:19.652Z,23.12
2019-05-26T15:38:19.656Z,23.23
2019-05-26T15:39:19.658Z,23.21
2019-05-26T15:40:19.658Z,23.27
2019-05-26T15:41:19.661Z,23.25
2019-05-26T15:42:19.663Z,23.41
2019-05-26T15:43:19.667Z,23.46
2019-05-26T15:44:19.667Z,23.46
2019-05-26T15:45:19.670Z,23.46
2019-05-26T15:46:25.222Z,23.40
2019-05-26T15:47:19.675Z,23.50
2019-05-26T15:48:19.677Z,23.48
2019-05-26T15:49:19.679Z,23.31
2019-05-26T15:50:19.683Z,23.28
2019-05-26T15:51:19.684Z,23.32
2019-05-26T15:52:19.687Z,23.24
2019-05-26T15:53:19.690Z,23.12
2019-05-26T15:54:19.692Z,23.05
2019-05-26T15:55:19.696Z,23.05
2019-05-26T15:56:19.696Z,22.88
2019-05-26T15:57:19.700Z,22.87
2019-05-26T15:58:19.703Z,22.81
2019-05-26T15:59:19.702Z,22.72
2019-05-26T16:00:19.705Z,22.72
2019-05-26T16:01:19.709Z,22.80
2019-05-26T16:02:19.713Z,22.93
2019-05-26T16:03:19.713Z,22.83
2019-05-26T16:04:19.774Z,22.83
2019-05-26T16:05:19.720Z,22.75
2019-05-26T16:06:19.720Z,22.75
2019-05-26T16:07:19.726Z,22.81
2019-05-26T16:08:19.725Z,22.85
2019-05-26T16:09:19.725Z,22.84
2019-05-26T16:10:19.727Z,22.84
2019-05-26T16:11:19.731Z,22.73
2019-05-26T16:12:19.735Z,22.73
2019-05-26T16:13:19.734Z,22.85
2019-05-26T16:14:19.738Z,22.90
2019-05-26T16:15:19.822Z,22.85
2019-05-26T16:16:19.743Z,22.84
2019-05-26T16:17:19.747Z,22.90
2019-05-26T16:18:19.745Z,23.12
2019-05-26T16:19:19.749Z,23.24
2019-05-26T16:20:19.751Z,23.31
2019-05-26T16:21:28.157Z,23.46
2019-05-26T16:22:19.755Z,23.36
2019-05-26T16:23:19.758Z,23.25
2019-05-26T16:24:19.795Z,23.20
2019-05-26T16:25:19.764Z,23.31
2019-05-26T16:26:19.778Z,23.36
2019-05-26T16:27:20.057Z,23.48
2019-05-26T16:28:19.806Z,23.51
2019-05-26T16:29:19.771Z,23.54
2019-05-26T16:30:19.775Z,23.59
2019-05-26T16:31:19.775Z,23.66
2019-05-26T16:32:19.777Z,23.74
2019-05-26T16:33:19.783Z,23.63
2019-05-26T16:34:19.783Z,23.56
2019-05-26T16:35:19.786Z,23.63
2019-05-26T16:36:21.393Z,23.63
2019-05-26T16:37:19.791Z,23.58
2019-05-26T16:38:19.796Z,23.43
2019-05-26T16:39:19.799Z,23.37
2019-05-26T16:40:19.797Z,23.20
2019-05-26T16:41:19.804Z,23.24
2019-05-26T16:42:20.664Z,23.18
2019-05-26T16:43:19.809Z,23.17
2019-05-26T16:44:19.810Z,23.25
2019-05-26T16:45:19.858Z,23.25
2019-05-26T16:46:19.814Z,23.21
2019-05-26T16:47:19.816Z,23.21
2019-05-26T16:48:19.816Z,23.23
2019-05-26T16:49:19.821Z,23.25
2019-05-26T16:50:19.824Z,23.40
2019-05-26T16:51:19.825Z,23.41
2019-05-26T16:52:20.673Z,23.28
2019-05-26T16:53:19.829Z,23.51
2019-05-26T16:54:19.832Z,23.69
2019-05-26T16:55:19.838Z,23.92
2019-05-26T16:56:19.836Z,23.86
2019-05-26T16:57:19.839Z,23.80
2019-05-26T16:58:19.847Z,23.99
2019-05-26T16:59:19.849Z,23.96
2019-05-26T17:00:19.846Z,23.87
2019-05-26T17:01:19.849Z,23.88
2019-05-26T17:02:19.854Z,23.61
2019-05-26T17:03:19.858Z,23.55
2019-05-26T17:04:19.855Z,23.58
2019-05-26T17:05:19.858Z,23.59
2019-05-26T17:06:19.862Z,23.47
2019-05-26T17:07:19.866Z,23.48
2019-05-26T17:08:19.870Z,23.21
2019-05-26T17:09:19.876Z,23.06
2019-05-26T17:10:19.873Z,23.09
2019-05-26T17:11:19.879Z,23.18
2019-05-26T17:12:19.881Z,23.28
2019-05-26T17:13:19.884Z,22.96
2019-05-26T17:14:19.894Z,23.15
2019-05-26T17:15:19.890Z,23.40
2019-05-26T17:16:19.894Z,23.36
2019-05-26T17:17:19.897Z,23.32
2019-05-26T17:18:19.901Z,23.46
2019-05-26T17:19:20.117Z,23.43
2019-05-26T17:20:19.909Z,23.46
2019-05-26T17:21:20.163Z,23.54
2019-05-26T17:22:19.915Z,23.62
2019-05-26T17:23:19.991Z,23.46
2019-05-26T17:24:19.922Z,23.48
2019-05-26T17:25:19.925Z,23.46
2019-05-26T17:26:19.929Z,23.37
2019-05-26T17:27:19.939Z,23.17
2019-05-26T17:28:19.938Z,23.17
2019-05-26T17:29:19.940Z,23.23
2019-05-26T17:30:22.157Z,23.20
2019-05-26T17:31:19.954Z,22.96
2019-05-26T17:32:19.962Z,22.94
2019-05-26T17:33:20.017Z,23.00
2019-05-26T17:34:19.960Z,22.99
2019-05-26T17:35:19.965Z,22.91
2019-05-26T17:36:19.967Z,22.85
2019-05-26T17:37:19.972Z,22.94
2019-05-26T17:38:19.976Z,22.78
2019-05-26T17:39:19.980Z,22.78
2019-05-26T17:40:19.983Z,22.78
2019-05-26T17:41:19.990Z,22.68
2019-05-26T17:42:19.989Z,22.69
2019-05-26T17:43:19.995Z,22.60
2019-05-26T17:44:19.998Z,22.50
2019-05-26T17:45:20.000Z,22.47
2019-05-26T17:46:20.006Z,22.47
2019-05-26T17:47:29.722Z,22.50
2019-05-26T17:48:20.012Z,22.36
2019-05-26T17:49:20.013Z,22.36
2019-05-26T17:50:20.031Z,22.32
2019-05-26T17:51:20.023Z,22.29
2019-05-26T17:52:20.024Z,22.30
2019-05-26T17:53:20.032Z,22.28
2019-05-26T17:54:20.031Z,22.14
2019-05-26T17:55:20.036Z,22.10
2019-05-26T17:56:20.036Z,22.06
2019-05-26T17:57:20.041Z,21.93
2019-05-26T17:58:20.078Z,21.83
2019-05-26T17:59:20.050Z,21.80
2019-05-26T18:00:20.049Z,21.91
2019-05-26T18:01:20.054Z,21.77
2019-05-26T18:02:20.056Z,21.79
2019-05-26T18:03:20.058Z,21.77
2019-05-26T18:04:20.063Z,21.79
2019-05-26T18:05:20.065Z,21.89
2019-05-26T18:06:20.065Z,21.73
2019-05-26T18:07:20.070Z,21.66
2019-05-26T18:08:20.071Z,21.67
2019-05-26T18:09:20.075Z,21.62
2019-05-26T18:10:20.075Z,21.58
2019-05-26T18:11:20.078Z,21.36
2019-05-26T18:12:20.080Z,21.42
2019-05-26T18:13:20.088Z,21.48
2019-05-26T18:14:20.089Z,21.40
2019-05-26T18:15:20.090Z,21.50
2019-05-26T18:16:20.095Z,21.45
2019-05-26T18:17:20.351Z,21.46
2019-05-26T18:18:20.097Z,21.66
2019-05-26T18:19:20.098Z,21.80
2019-05-26T18:20:20.098Z,22.02
2019-05-26T18:21:20.101Z,22.08
2019-05-26T18:22:20.113Z,22.06
2019-05-26T18:23:20.105Z,21.99
2019-05-26T18:24:20.109Z,21.80
2019-05-26T18:25:20.110Z,21.72
2019-05-26T18:26:20.113Z,21.66
2019-05-26T18:27:20.122Z,21.54
2019-05-26T18:28:20.120Z,21.42
2019-05-26T18:29:20.123Z,21.35
2019-05-26T18:30:20.122Z,21.27
2019-05-26T18:31:20.133Z,21.32
2019-05-26T18:32:20.132Z,21.36
2019-05-26T18:33:20.130Z,21.22
2019-05-26T18:34:20.133Z,21.21
2019-05-26T18:35:20.134Z,21.12
2019-05-26T18:36:20.139Z,21.07
2019-05-26T18:37:20.138Z,21.02
2019-05-26T18:38:20.142Z,21.02
2019-05-26T18:39:20.144Z,20.92
2019-05-26T18:40:20.146Z,20.92
2019-05-26T18:41:20.147Z,20.95
2019-05-26T18:42:20.148Z,20.72
2019-05-26T18:43:20.151Z,20.69
2019-05-26T18:44:20.153Z,20.72
2019-05-26T18:45:20.155Z,20.59
2019-05-26T18:46:20.157Z,20.65
2019-05-26T18:47:20.161Z,20.62
2019-05-26T18:48:20.157Z,20.67
2019-05-26T18:49:20.161Z,20.62
2019-05-26T18:50:20.161Z,20.52
2019-05-26T18:51:20.169Z,20.56
2019-05-26T18:52:20.166Z,20.55
2019-05-26T18:53:20.166Z,20.48
2019-05-26T18:54:20.170Z,20.43
2019-05-26T18:55:20.176Z,20.41
2019-05-26T18:56:20.173Z,20.37
2019-05-26T18:57:20.173Z,20.34
2019-05-26T18:58:20.175Z,20.22
2019-05-26T18:59:20.179Z,20.22
2019-05-26T19:00:20.219Z,20.25
2019-05-26T19:01:20.181Z,20.19
2019-05-26T19:02:20.181Z,20.16
2019-05-26T19:03:20.181Z,20.19
2019-05-26T19:04:20.185Z,20.09
2019-05-26T19:05:32.446Z,20.09
2019-05-26T19:06:20.187Z,20.18
2019-05-26T19:07:20.188Z,20.13
2019-05-26T19:08:20.187Z,20.00
2019-05-26T19:09:20.188Z,19.96
2019-05-26T19:10:20.190Z,20.03
2019-05-26T19:11:20.194Z,19.99
2019-05-26T19:12:20.196Z,20.06
2019-05-26T19:13:20.193Z,19.99
2019-05-26T19:14:20.195Z,20.04
2019-05-26T19:15:20.199Z,19.94
2019-05-26T19:16:20.196Z,19.86
2019-05-26T19:17:20.197Z,19.91
2019-05-26T19:18:20.832Z,19.84
2019-05-26T19:19:20.199Z,19.84
2019-05-26T19:20:20.199Z,19.74
2019-05-26T19:21:20.202Z,19.82
2019-05-26T19:22:20.202Z,19.70
2019-05-26T19:23:20.204Z,19.66
2019-05-26T19:24:20.204Z,19.64
2019-05-26T19:25:20.242Z,19.67
2019-05-26T19:26:20.210Z,19.56
2019-05-26T19:27:20.207Z,19.52
2019-05-26T19:28:20.206Z,19.54
2019-05-26T19:29:20.207Z,19.49
2019-05-26T19:30:20.210Z,19.47
2019-05-26T19:31:20.209Z,19.36
2019-05-26T19:32:20.212Z,19.49
2019-05-26T19:33:20.218Z,19.31
2019-05-26T19:34:20.216Z,19.34
2019-05-26T19:35:20.214Z,19.37
2019-05-26T19:36:20.212Z,19.39
2019-05-26T19:37:20.212Z,19.26
2019-05-26T19:38:20.214Z,19.27
2019-05-26T19:39:20.215Z,19.29
2019-05-26T19:40:20.217Z,19.21
2019-05-26T19:41:20.215Z,19.21
2019-05-26T19:42:20.217Z,19.16
2019-05-26T19:43:20.218Z,19.15
2019-05-26T19:44:20.220Z,19.12
2019-05-26T19:45:20.217Z,19.04
2019-05-26T19:46:20.219Z,19.02
2019-05-26T19:47:20.222Z,18.99
2019-05-26T19:48:34.998Z,19.02
2019-05-26T19:49:20.223Z,18.99
2019-05-26T19:50:20.234Z,18.88
2019-05-26T19:51:20.269Z,18.90
2019-05-26T19:52:20.220Z,18.89
2019-05-26T19:53:20.230Z,18.86
2019-05-26T19:54:20.222Z,18.89
2019-05-26T19:55:20.223Z,18.81
2019-05-26T19:56:20.223Z,18.78
2019-05-26T19:57:20.231Z,18.75
2019-05-26T19:58:20.226Z,18.78
2019-05-26T19:59:20.223Z,18.81
2019-05-26T20:00:20.226Z,18.68
2019-05-26T20:01:20.227Z,18.77
2019-05-26T20:02:20.226Z,18.74
2019-05-26T20:03:20.245Z,18.75
2019-05-26T20:04:20.224Z,18.77
2019-05-26T20:05:20.225Z,18.80
2019-05-26T20:06:20.226Z,18.81
2019-05-26T20:07:20.227Z,18.71
2019-05-26T20:08:20.226Z,18.70
2019-05-26T20:09:20.225Z,18.71
2019-05-26T20:10:20.228Z,18.66
2019-05-26T20:11:20.226Z,18.60
2019-05-26T20:12:20.226Z,18.68
2019-05-26T20:13:20.227Z,18.70
2019-05-26T20:14:20.229Z,18.73
2019-05-26T20:15:20.251Z,18.63
2019-05-26T20:16:20.230Z,18.63
2019-05-26T20:17:20.227Z,18.56
2019-05-26T20:18:20.228Z,18.55
2019-05-26T20:19:20.266Z,18.68
2019-05-26T20:20:20.255Z,18.62
2019-05-26T20:21:20.228Z,18.63
2019-05-26T20:22:23.733Z,18.58
2019-05-26T20:23:20.229Z,18.53
2019-05-26T20:24:20.232Z,18.59
2019-05-26T20:25:20.229Z,18.55
2019-05-26T20:26:20.230Z,18.55
2019-05-26T20:27:20.231Z,18.49
2019-05-26T20:28:21.174Z,18.53
2019-05-26T20:29:20.230Z,18.52